createdAt,value
2023-10-17T00:01:02.148Z,12.56
2023-10-17T00:03:30.914Z,12.59
2023-10-17T00:06:00.238Z,12.56
2023-10-17T00:08:29.606Z,12.56
2023-10-17T00:10:58.944Z,12.55
2023-10-17T00:13:39.873Z,12.53
2023-10-17T00:16:09.786Z,12.49
2023-10-17T00:18:37.994Z,12.50
2023-10-17T00:21:22.405Z,12.48
2023-10-17T00:23:52.853Z,12.44
2023-10-17T00:26:21.593Z,12.42
2023-10-17T00:28:54.297Z,12.40
2023-10-17T00:31:23.159Z,12.40
2023-10-17T00:34:14.985Z,12.37
2023-10-17T00:36:51.668Z,12.34
2023-10-17T00:39:40.956Z,12.35
2023-10-17T00:42:10.402Z,12.30
2023-10-17T00:44:48.265Z,12.32
2023-10-17T00:47:20.180Z,12.33
2023-10-17T00:49:51.250Z,12.32
2023-10-17T00:52:33.725Z,12.30
2023-10-17T00:55:04.790Z,12.25
2023-10-17T00:57:33.844Z,12.24
2023-10-17T01:00:25.099Z,12.21
2023-10-17T01:02:53.423Z,12.16
2023-10-17T01:05:22.214Z,12.14
2023-10-17T01:07:50.058Z,12.10
2023-10-17T01:10:18.413Z,12.14
2023-10-17T01:12:55.116Z,12.13
2023-10-17T01:15:34.364Z,12.07
2023-10-17T01:18:05.688Z,12.07
2023-10-17T01:20:36.658Z,12.10
2023-10-17T01:23:05.844Z,12.04
2023-10-17T01:25:42.266Z,12.01
2023-10-17T01:28:11.969Z,11.97
2023-10-17T01:30:42.429Z,11.96
2023-10-17T01:33:11.024Z,11.93
2023-10-17T01:35:41.986Z,11.88
2023-10-17T01:38:09.964Z,11.87
2023-10-17T01:40:38.848Z,11.87
2023-10-17T01:43:06.863Z,11.86
2023-10-17T01:45:39.069Z,11.84
2023-10-17T01:48:11.873Z,11.83
2023-10-17T01:50:41.307Z,11.76
2023-10-17T01:53:14.373Z,11.77
2023-10-17T01:55:46.919Z,11.79
2023-10-17T01:58:19.682Z,11.79
2023-10-17T02:00:49.460Z,11.78
2023-10-17T02:03:18.267Z,11.80
2023-10-17T02:05:46.760Z,11.80
2023-10-17T02:08:16.272Z,11.78
2023-10-17T02:10:45.224Z,11.80
2023-10-17T02:13:13.081Z,11.79
2023-10-17T02:15:41.422Z,11.75
2023-10-17T02:18:16.934Z,11.73
2023-10-17T02:20:54.253Z,11.72
2023-10-17T02:23:27.730Z,11.66
2023-10-17T02:25:56.856Z,11.68
2023-10-17T02:28:25.945Z,11.66
2023-10-17T02:30:54.317Z,11.66
2023-10-17T02:33:22.846Z,11.67
2023-10-17T02:36:05.881Z,11.70
2023-10-17T02:38:33.778Z,11.67
2023-10-17T02:41:02.960Z,11.66
2023-10-17T02:43:30.988Z,11.66
2023-10-17T02:46:05.880Z,11.66
2023-10-17T02:48:40.662Z,11.67
2023-10-17T02:51:24.866Z,11.64
2023-10-17T02:53:58.549Z,11.67
2023-10-17T02:56:27.827Z,11.65
2023-10-17T02:59:13.637Z,11.67
2023-10-17T03:01:46.569Z,11.64
2023-10-17T03:04:15.151Z,11.65
2023-10-17T03:06:46.027Z,11.65
2023-10-17T03:09:24.251Z,11.68
2023-10-17T03:11:58.778Z,11.66
2023-10-17T03:14:40.406Z,11.64
2023-10-17T03:17:09.095Z,11.46
2023-10-17T03:19:39.265Z,11.52
2023-10-17T03:22:28.891Z,11.59
2023-10-17T03:25:03.575Z,11.59
2023-10-17T03:27:38.777Z,11.60
2023-10-17T03:30:12.149Z,11.61
2023-10-17T03:32:59.060Z,11.61
2023-10-17T03:35:32.557Z,11.61
2023-10-17T03:38:02.849Z,11.58
2023-10-17T03:40:36.190Z,11.66
2023-10-17T03:43:13.838Z,11.67
2023-10-17T03:45:45.783Z,11.62
2023-10-17T03:48:19.410Z,11.62
2023-10-17T03:50:48.160Z,11.62
2023-10-17T03:53:30.788Z,11.61
2023-10-17T03:56:02.462Z,11.59
2023-10-17T03:58:32.139Z,11.57
2023-10-17T04:01:07.607Z,11.59
2023-10-17T04:03:35.784Z,11.53
2023-10-17T04:06:08.396Z,11.52
2023-10-17T04:08:49.781Z,11.53
2023-10-17T04:11:27.025Z,11.49
2023-10-17T04:13:57.926Z,11.42
2023-10-17T04:16:40.093Z,11.42
2023-10-17T04:19:09.790Z,11.40
2023-10-17T04:21:47.223Z,11.38
2023-10-17T04:24:35.828Z,11.34
2023-10-17T04:27:08.480Z,11.33
2023-10-17T04:29:36.595Z,11.33
2023-10-17T04:32:13.746Z,11.34
2023-10-17T04:34:48.541Z,11.34
2023-10-17T04:37:32.577Z,11.39
2023-10-17T04:40:36.436Z,11.42
2023-10-17T04:43:33.346Z,11.39
2023-10-17T04:46:02.917Z,11.41
2023-10-17T04:48:35.649Z,11.42
2023-10-17T04:51:21.312Z,11.46
2023-10-17T04:53:49.755Z,11.50
2023-10-17T04:56:23.028Z,11.52
2023-10-17T04:58:57.878Z,11.50
2023-10-17T05:01:35.554Z,11.50
2023-10-17T05:04:18.219Z,11.50
2023-10-17T05:06:59.243Z,11.50
2023-10-17T05:09:37.208Z,11.44
2023-10-17T05:12:23.770Z,11.44
2023-10-17T05:15:10.459Z,11.41
2023-10-17T05:17:57.093Z,11.43
2023-10-17T05:20:43.860Z,11.42
2023-10-17T05:23:30.624Z,11.38
2023-10-17T05:26:27.178Z,11.39
2023-10-17T05:29:13.789Z,11.34
2023-10-17T05:32:03.467Z,11.33
2023-10-17T05:34:51.206Z,11.28
2023-10-17T05:37:37.799Z,11.27
2023-10-17T05:40:24.902Z,11.25
2023-10-17T05:43:11.897Z,11.22
2023-10-17T05:45:58.685Z,11.20
2023-10-17T05:48:45.653Z,11.16
2023-10-17T05:51:33.534Z,11.13
2023-10-17T05:57:10.974Z,11.10
2023-10-17T05:59:59.011Z,11.09
2023-10-17T06:02:45.752Z,11.08
2023-10-17T06:05:32.789Z,11.07
2023-10-17T06:08:19.550Z,11.08
2023-10-17T06:11:34.428Z,11.15
2023-10-17T06:14:20.765Z,11.16
2023-10-17T06:16:53.310Z,11.18
2023-10-17T06:19:22.944Z,11.13
2023-10-17T06:22:03.322Z,11.20
2023-10-17T06:24:54.575Z,11.21
2023-10-17T06:27:37.696Z,11.17
2023-10-17T06:30:25.659Z,11.24
2023-10-17T06:33:05.535Z,11.28
2023-10-17T06:35:33.695Z,11.29
2023-10-17T06:38:01.904Z,11.35
2023-10-17T06:40:39.217Z,11.40
2023-10-17T06:43:15.093Z,11.43
2023-10-17T06:45:55.819Z,11.44
2023-10-17T06:48:34.191Z,11.42
2023-10-17T06:51:24.504Z,11.43
2023-10-17T06:53:53.346Z,11.43
2023-10-17T06:56:22.614Z,11.48
2023-10-17T06:58:52.675Z,11.52
2023-10-17T07:01:25.112Z,11.52
2023-10-17T07:03:56.134Z,11.53
2023-10-17T07:06:27.985Z,11.54
2023-10-17T07:08:56.153Z,11.56
2023-10-17T07:11:31.158Z,11.61
2023-10-17T07:14:08.076Z,11.61
2023-10-17T07:16:41.369Z,11.57
2023-10-17T07:19:25.029Z,11.66
2023-10-17T07:22:00.785Z,11.68
2023-10-17T07:24:38.350Z,11.75
2023-10-17T07:27:34.557Z,11.73
2023-10-17T07:30:12.066Z,11.70
2023-10-17T07:32:46.824Z,11.72
2023-10-17T07:35:17.776Z,11.75
2023-10-17T07:37:58.427Z,11.80
2023-10-17T07:40:33.485Z,11.82
2023-10-17T07:43:02.498Z,11.84
2023-10-17T07:45:40.684Z,11.88
2023-10-17T07:48:21.890Z,11.91
2023-10-17T07:50:53.047Z,11.99
2023-10-17T07:53:22.299Z,12.03
2023-10-17T07:56:05.842Z,12.13
2023-10-17T07:58:47.265Z,12.19
2023-10-17T08:01:18.621Z,12.19
2023-10-17T08:03:56.533Z,12.23
2023-10-17T08:06:31.461Z,12.31
2023-10-17T08:09:00.801Z,12.38
2023-10-17T08:11:29.808Z,12.45
2023-10-17T08:14:10.143Z,12.50
2023-10-17T08:16:41.814Z,12.55
2023-10-17T08:19:16.526Z,12.59
2023-10-17T08:22:12.356Z,12.65
2023-10-17T08:24:40.277Z,12.67
2023-10-17T08:27:18.868Z,12.73
2023-10-17T08:29:49.643Z,12.77
2023-10-17T08:32:21.220Z,12.80
2023-10-17T08:34:50.731Z,12.71
2023-10-17T08:37:28.116Z,12.82
2023-10-17T08:39:58.081Z,12.91
2023-10-17T08:42:32.754Z,12.97
2023-10-17T08:45:05.700Z,13.05
2023-10-17T08:47:33.857Z,13.13
2023-10-17T08:50:09.721Z,13.22
2023-10-17T08:52:40.782Z,13.29
2023-10-17T08:55:09.046Z,13.35
2023-10-17T08:57:38.973Z,13.41
2023-10-17T09:00:10.728Z,13.47
2023-10-17T09:02:44.919Z,13.51
2023-10-17T09:05:19.524Z,13.55
2023-10-17T09:07:48.676Z,13.56
2023-10-17T09:10:38.193Z,13.61
2023-10-17T09:13:16.099Z,13.62
2023-10-17T09:15:56.639Z,13.67
2023-10-17T09:18:30.617Z,13.72
2023-10-17T09:21:04.744Z,13.74
2023-10-17T09:23:32.922Z,13.79
2023-10-17T09:26:08.832Z,13.83
2023-10-17T09:28:38.872Z,13.85
2023-10-17T09:31:11.551Z,13.91
2023-10-17T09:33:46.573Z,13.93
2023-10-17T09:36:20.599Z,13.97
2023-10-17T09:38:49.587Z,14.00
2023-10-17T09:41:20.263Z,14.05
2023-10-17T09:43:52.755Z,14.07
2023-10-17T09:46:28.435Z,14.11
2023-10-17T09:49:02.269Z,14.16
2023-10-17T09:51:35.089Z,14.20
2023-10-17T09:54:05.840Z,14.26
2023-10-17T09:56:43.524Z,14.26
2023-10-17T09:59:22.790Z,14.34
2023-10-17T10:01:52.278Z,14.39
2023-10-17T10:04:21.389Z,14.44
2023-10-17T10:07:13.260Z,14.49
2023-10-17T10:09:41.347Z,14.56
2023-10-17T10:12:10.063Z,14.64
2023-10-17T10:14:44.104Z,14.69
2023-10-17T10:17:16.362Z,14.73
2023-10-17T10:19:45.107Z,14.79
2023-10-17T10:22:15.883Z,14.87
2023-10-17T10:24:48.155Z,14.92
2023-10-17T10:27:17.851Z,14.96
2023-10-17T10:29:56.821Z,15.03
2023-10-17T10:32:38.514Z,15.07
2023-10-17T10:35:09.211Z,15.08
2023-10-17T10:37:56.545Z,15.11
2023-10-17T10:40:31.684Z,15.12
2023-10-17T10:43:02.736Z,15.17
2023-10-17T10:45:39.397Z,15.22
2023-10-17T10:48:19.333Z,15.28
2023-10-17T10:50:50.198Z,15.30
2023-10-17T10:53:37.581Z,15.39
2023-10-17T10:56:10.850Z,15.41
2023-10-17T10:58:52.533Z,15.49
2023-10-17T11:01:22.496Z,15.33
2023-10-17T11:03:53.872Z,15.45
2023-10-17T11:06:26.904Z,15.52
2023-10-17T11:08:56.120Z,15.58
2023-10-17T11:11:24.841Z,15.64
2023-10-17T11:13:58.818Z,15.64
2023-10-17T11:16:28.084Z,15.64
2023-10-17T11:18:58.930Z,15.50
2023-10-17T11:21:27.006Z,15.60
2023-10-17T11:24:08.309Z,15.74
2023-10-17T11:26:41.019Z,15.74
2023-10-17T11:29:10.459Z,15.75
2023-10-17T11:31:42.863Z,15.77
2023-10-17T11:34:14.648Z,15.73
2023-10-17T11:36:53.981Z,15.74
2023-10-17T11:39:22.565Z,15.76
2023-10-17T11:41:56.695Z,15.79
2023-10-17T11:44:29.344Z,15.81
2023-10-17T11:47:03.206Z,15.84
2023-10-17T11:49:37.285Z,15.95
2023-10-17T11:52:12.269Z,15.95
2023-10-17T11:55:14.890Z,15.98
2023-10-17T11:57:47.737Z,16.08
2023-10-17T12:00:18.982Z,16.17
2023-10-17T12:02:51.370Z,16.02
2023-10-17T12:05:21.965Z,16.10
2023-10-17T12:08:00.010Z,16.14
2023-10-17T12:10:32.209Z,16.21
2023-10-17T12:13:07.697Z,16.22
2023-10-17T12:15:36.049Z,16.27
2023-10-17T12:18:04.221Z,16.28
2023-10-17T12:20:32.153Z,16.34
2023-10-17T12:23:01.794Z,16.40
2023-10-17T12:25:35.114Z,16.44
2023-10-17T12:28:03.873Z,16.45
2023-10-17T12:30:37.256Z,16.50
2023-10-17T12:33:07.645Z,16.58
2023-10-17T12:35:35.735Z,16.63
2023-10-17T12:38:16.148Z,16.68
2023-10-17T12:40:44.575Z,16.68
2023-10-17T12:43:13.457Z,16.76
2023-10-17T12:45:43.358Z,16.81
2023-10-17T12:48:12.939Z,16.86
2023-10-17T12:50:44.931Z,16.87
2023-10-17T12:53:15.122Z,16.92
2023-10-17T12:55:43.276Z,16.92
2023-10-17T12:58:20.122Z,16.95
2023-10-17T13:00:49.013Z,16.93
2023-10-17T13:03:18.611Z,17.01
2023-10-17T13:05:47.381Z,17.03
2023-10-17T13:08:16.482Z,17.06
2023-10-17T13:10:44.817Z,17.06
2023-10-17T13:13:12.670Z,17.10
2023-10-17T13:15:41.323Z,17.15
2023-10-17T13:18:12.053Z,17.15
2023-10-17T13:20:53.451Z,17.12
2023-10-17T13:23:33.587Z,17.16
2023-10-17T13:26:01.841Z,17.15
2023-10-17T13:28:30.573Z,17.20
2023-10-17T13:30:59.813Z,17.21
2023-10-17T13:33:28.616Z,17.22
2023-10-17T13:35:56.486Z,17.22
2023-10-17T13:38:24.370Z,17.21
2023-10-17T13:40:52.814Z,17.26
2023-10-17T13:43:20.738Z,17.31
2023-10-17T13:45:48.584Z,17.32
2023-10-17T13:48:16.946Z,17.33
2023-10-17T13:50:45.171Z,17.33
2023-10-17T13:53:18.105Z,17.33
2023-10-17T13:55:46.633Z,17.32
2023-10-17T13:58:15.071Z,17.27
2023-10-17T14:00:52.738Z,17.27
2023-10-17T14:03:23.942Z,17.24
2023-10-17T14:05:53.336Z,17.20
2023-10-17T14:08:26.441Z,17.17
2023-10-17T14:10:54.382Z,17.12
2023-10-17T14:13:22.453Z,17.12
2023-10-17T14:15:58.500Z,17.11
2023-10-17T14:18:40.925Z,17.11
2023-10-17T14:21:27.732Z,17.04
2023-10-17T14:24:00.115Z,17.01
2023-10-17T14:26:31.297Z,16.96
2023-10-17T14:29:04.788Z,16.95
2023-10-17T14:31:33.789Z,16.91
2023-10-17T14:34:02.369Z,16.90
2023-10-17T14:36:30.842Z,16.88
2023-10-17T14:39:00.682Z,16.83
2023-10-17T14:41:31.629Z,16.79
2023-10-17T14:43:59.435Z,16.78
2023-10-17T14:46:27.438Z,16.79
2023-10-17T14:48:55.846Z,16.77
2023-10-17T14:51:26.106Z,16.77
2023-10-17T14:53:54.030Z,16.73
2023-10-17T14:56:23.083Z,16.72
2023-10-17T14:58:51.610Z,16.69
2023-10-17T15:01:21.139Z,16.67
2023-10-17T15:03:52.072Z,16.63
2023-10-17T15:06:20.951Z,16.63
2023-10-17T15:08:50.028Z,16.60
2023-10-17T15:11:18.110Z,16.60
2023-10-17T15:13:45.890Z,16.62
2023-10-17T15:16:17.174Z,16.62
2023-10-17T15:18:45.867Z,16.58
2023-10-17T15:21:14.958Z,16.61
2023-10-17T15:23:44.258Z,16.61
2023-10-17T15:26:12.450Z,16.60
2023-10-17T15:28:50.132Z,16.61
2023-10-17T15:31:18.170Z,16.57
2023-10-17T15:33:46.651Z,16.52
2023-10-17T15:36:15.801Z,16.57
2023-10-17T15:38:44.614Z,16.54
2023-10-17T15:41:17.634Z,16.56
2023-10-17T15:43:46.661Z,16.54
2023-10-17T15:46:16.870Z,16.55
2023-10-17T15:48:45.486Z,16.50
2023-10-17T15:51:21.653Z,16.52
2023-10-17T15:53:50.694Z,16.47
2023-10-17T15:56:18.640Z,16.45
2023-10-17T15:58:47.397Z,16.42
2023-10-17T16:01:15.475Z,16.39
2023-10-17T16:03:47.840Z,16.33
2023-10-17T16:06:19.027Z,16.35
2023-10-17T16:08:49.625Z,16.33
2023-10-17T16:11:18.861Z,16.30
2023-10-17T16:13:47.115Z,16.30
2023-10-17T16:16:15.541Z,16.27
2023-10-17T16:18:44.089Z,16.24
2023-10-17T16:21:12.158Z,16.21
2023-10-17T16:23:40.376Z,16.21
2023-10-17T16:26:14.550Z,16.18
2023-10-17T16:28:42.606Z,16.18
2023-10-17T16:31:14.494Z,16.16
2023-10-17T16:33:43.114Z,16.17
2023-10-17T16:36:11.581Z,16.14
2023-10-17T16:38:40.279Z,16.12
2023-10-17T16:41:10.248Z,16.11
2023-10-17T16:43:38.473Z,16.09
2023-10-17T16:46:06.792Z,16.03
2023-10-17T16:48:35.189Z,16.03
2023-10-17T16:51:03.160Z,16.04
2023-10-17T16:53:32.462Z,16.04
2023-10-17T16:56:03.369Z,16.03
2023-10-17T16:58:33.446Z,15.96
2023-10-17T17:01:11.222Z,15.95
2023-10-17T17:03:40.436Z,15.95
2023-10-17T17:06:08.575Z,15.88
2023-10-17T17:08:36.918Z,15.89
2023-10-17T17:11:08.800Z,15.84
2023-10-17T17:13:39.621Z,15.84
2023-10-17T17:16:08.668Z,15.82
2023-10-17T17:18:47.204Z,15.76
2023-10-17T17:21:20.819Z,15.77
2023-10-17T17:23:49.738Z,15.76
2023-10-17T17:26:18.767Z,15.75
2023-10-17T17:28:47.235Z,15.72
2023-10-17T17:31:16.005Z,15.64
2023-10-17T17:33:45.023Z,15.69
2023-10-17T17:36:13.037Z,15.66
2023-10-17T17:38:44.567Z,15.61
2023-10-17T17:41:13.723Z,15.62
2023-10-17T17:43:41.893Z,15.61
2023-10-17T17:46:11.239Z,15.58
2023-10-17T17:48:39.918Z,15.55
2023-10-17T17:51:08.725Z,15.51
2023-10-17T17:53:37.201Z,15.51
2023-10-17T17:56:05.817Z,15.47
2023-10-17T17:58:35.407Z,15.46
2023-10-17T18:01:06.327Z,15.44
2023-10-17T18:03:35.585Z,15.41
2023-10-17T18:06:07.841Z,15.42
2023-10-17T18:08:37.396Z,15.36
2023-10-17T18:11:06.270Z,15.33
2023-10-17T18:13:34.388Z,15.34
2023-10-17T18:16:04.425Z,15.31
2023-10-17T18:18:36.477Z,15.27
2023-10-17T18:21:12.366Z,15.27
2023-10-17T18:23:44.451Z,15.25
2023-10-17T18:26:19.354Z,15.25
2023-10-17T18:28:47.337Z,15.21
2023-10-17T18:31:18.506Z,15.19
2023-10-17T18:33:48.441Z,15.16
2023-10-17T18:36:19.616Z,15.17
2023-10-17T18:38:47.721Z,15.12
2023-10-17T18:41:15.909Z,15.10
2023-10-17T18:43:44.455Z,15.07
2023-10-17T18:46:14.012Z,15.06
2023-10-17T18:48:43.091Z,15.05
2023-10-17T18:51:14.240Z,15.03
2023-10-17T18:53:43.107Z,15.00
2023-10-17T18:56:11.920Z,14.98
2023-10-17T18:58:42.555Z,14.98
2023-10-17T19:01:15.661Z,14.96
2023-10-17T19:03:47.138Z,14.94
2023-10-17T19:06:16.774Z,14.91
2023-10-17T19:08:44.992Z,14.92
2023-10-17T19:11:13.971Z,14.91
2023-10-17T19:13:42.151Z,14.89
2023-10-17T19:16:11.576Z,14.85
2023-10-17T19:18:41.824Z,14.81
2023-10-17T19:21:12.709Z,14.81
2023-10-17T19:23:42.550Z,14.76
2023-10-17T19:26:14.884Z,14.79
2023-10-17T19:28:44.673Z,14.74
2023-10-17T19:31:15.990Z,14.71
2023-10-17T19:33:43.978Z,14.69
2023-10-17T19:36:12.800Z,14.71
2023-10-17T19:38:41.278Z,14.71
2023-10-17T19:41:12.672Z,14.70
2023-10-17T19:43:42.837Z,14.67
2023-10-17T19:46:11.956Z,14.67
2023-10-17T19:48:40.221Z,14.65
2023-10-17T19:51:08.825Z,14.62
2023-10-17T19:53:39.717Z,14.63
2023-10-17T19:56:08.772Z,14.61
2023-10-17T19:58:37.819Z,14.60
2023-10-17T20:01:09.550Z,14.61
2023-10-17T20:03:37.609Z,14.57
2023-10-17T20:06:06.801Z,14.59
2023-10-17T20:08:35.053Z,14.52
2023-10-17T20:11:07.176Z,14.56
2023-10-17T20:13:36.364Z,14.50
2023-10-17T20:16:12.249Z,14.49
2023-10-17T20:18:42.031Z,14.43
2023-10-17T20:21:13.507Z,14.41
2023-10-17T20:23:42.721Z,14.41
2023-10-17T20:26:10.629Z,14.37
2023-10-17T20:28:39.772Z,14.39
2023-10-17T20:31:20.733Z,14.38
2023-10-17T20:33:55.184Z,14.33
2023-10-17T20:36:23.238Z,14.29
2023-10-17T20:38:52.437Z,14.26
2023-10-17T20:41:23.430Z,14.28
2023-10-17T20:43:51.903Z,14.23
2023-10-17T20:46:20.380Z,14.21
2023-10-17T20:48:50.215Z,14.19
2023-10-17T20:51:18.298Z,14.13
2023-10-17T20:53:46.429Z,14.12
2023-10-17T20:56:26.149Z,14.09
2023-10-17T20:59:02.773Z,14.05
2023-10-17T21:01:31.165Z,14.01
2023-10-17T21:03:59.442Z,14.07
2023-10-17T21:06:27.481Z,14.06
2023-10-17T21:08:55.624Z,14.04
2023-10-17T21:11:24.045Z,14.03
2023-10-17T21:13:51.897Z,14.02
2023-10-17T21:16:21.273Z,14.01
2023-10-17T21:18:49.993Z,14.00
2023-10-17T21:21:18.688Z,14.00
2023-10-17T21:23:47.081Z,13.97
2023-10-17T21:26:15.010Z,13.99
2023-10-17T21:28:42.891Z,13.97
2023-10-17T21:31:11.327Z,14.00
2023-10-17T21:33:39.646Z,13.96
2023-10-17T21:36:08.282Z,13.97
2023-10-17T21:38:39.371Z,13.98
2023-10-17T21:41:09.273Z,13.93
2023-10-17T21:43:37.694Z,13.88
2023-10-17T21:46:08.819Z,13.86
2023-10-17T21:48:46.182Z,13.85
2023-10-17T21:51:20.079Z,13.80
2023-10-17T21:53:48.563Z,13.77
2023-10-17T21:56:17.761Z,13.77
2023-10-17T21:58:50.575Z,13.75
2023-10-17T22:01:22.481Z,13.71
2023-10-17T22:03:50.746Z,13.70
2023-10-17T22:06:22.157Z,13.67
2023-10-17T22:08:50.714Z,13.65
2023-10-17T22:11:20.228Z,13.62
2023-10-17T22:13:53.368Z,13.62
2023-10-17T22:16:22.097Z,13.57
2023-10-17T22:18:50.854Z,13.59
2023-10-17T22:21:22.282Z,13.56
2023-10-17T22:23:52.007Z,13.54
2023-10-17T22:26:20.378Z,13.49
2023-10-17T22:28:48.381Z,13.49
2023-10-17T22:31:17.503Z,13.49
2023-10-17T22:33:45.474Z,13.47
2023-10-17T22:36:13.392Z,13.48
2023-10-17T22:38:41.918Z,13.45
2023-10-17T22:41:11.629Z,13.40
2023-10-17T22:43:40.016Z,13.35
2023-10-17T22:46:10.092Z,13.30
2023-10-17T22:48:38.902Z,13.26
2023-10-17T22:51:07.528Z,13.22
2023-10-17T22:53:37.597Z,13.19
2023-10-17T22:56:10.775Z,13.16
2023-10-17T22:58:42.737Z,13.17
2023-10-17T23:01:14.136Z,13.14
2023-10-17T23:03:42.612Z,13.08
2023-10-17T23:06:11.519Z,13.09
2023-10-17T23:08:39.620Z,13.07
2023-10-17T23:11:07.961Z,13.05
2023-10-17T23:13:35.949Z,13.06
2023-10-17T23:16:09.627Z,13.03
2023-10-17T23:18:39.682Z,13.03
2023-10-17T23:21:08.117Z,13.05
2023-10-17T23:23:36.039Z,13.06
2023-10-17T23:26:04.006Z,13.07
2023-10-17T23:28:32.473Z,13.07
2023-10-17T23:31:01.644Z,13.00
2023-10-17T23:33:31.258Z,13.04
2023-10-17T23:35:59.217Z,13.00
2023-10-17T23:38:27.200Z,13.02
2023-10-17T23:40:54.975Z,12.97
2023-10-17T23:43:25.915Z,12.95
2023-10-17T23:45:53.736Z,12.95
2023-10-17T23:48:27.776Z,12.92
2023-10-17T23:50:57.482Z,12.82
2023-10-17T23:53:28.947Z,12.84
2023-10-17T23:56:02.373Z,12.80
2023-10-17T23:58:33.605Z,12.77
